Local and Regional Airport Weather



KPVE - Beech River Regional Airport
Distance from station: NW 4mi, 6km
Updated: Mon, Jun-17-2019 7:55am CDT
Clear
Clear
 Wind from SSW
Wind: SSW 9 mph , 15 km/h
Temperature: 75°F , 24°C
Dew Point: 70°F , 21°C
Humidity: 83%
Barometer: 29.97 inHg , 1014.9 hPa
Clouds: Clear
Visibility: 10 miles , 16 km
2019/06/17 12:55 KPVE 171255Z AUTO 21008KT 10SM CLR 24/21 A2997 RMK A01
KSNH - Savannah Hardin Co. Airport
Distance from station: S 34mi, 54km
Updated: Mon, Jun-17-2019 7:55am CDT
Partly cloudy
Partly cloudy
 Wind from SSW
Wind: SSW 8 mph , 13 km/h
Temperature: 77°F , 25°C
Dew Point: 72°F , 22°C
Humidity: 83%
Barometer: 29.98 inHg , 1015.2 hPa
Clouds: Partly cloudy
Visibility: 10 miles , 16 km
Cloud details: Partly cloudy 10000 ft
2019/06/17 12:55 KSNH 171255Z AUTO 21007KT 10SM SCT100 25/22 A2998 RMK A01
 
KMKL - McKellar-Sipes Regional Airport
Distance from station: W 44mi, 72km
Updated: Mon, Jun-17-2019 7:53am CDT
Clear
Clear
 Wind from S
Wind: S 8 mph , 13 km/h
Temperature: 73°F , 23°C
Dew Point: 70°F , 21°C
Humidity: 89%
Barometer: 29.97 inHg , 1014.9 hPa
Clouds: Clear
Visibility: 10 miles , 16 km
2019/06/17 12:53 KMKL 171253Z 18007KT 10SM CLR 23/21 A2997 RMK AO2 SLP142 T02330211
KMSL - NW Alabama Regional Airport
Distance from station: SE 78mi, 126km
Updated: Mon, Jun-17-2019 7:53am CDT
Partly cloudy
Partly cloudy
 Wind from SSE
Wind: SSE 6 mph , 9 km/h
Temperature: 75°F , 24°C
Dew Point: 70°F , 21°C
Humidity: 83%
Barometer: 30.01 inHg , 1016.3 hPa
Clouds: Partly cloudy
Visibility: 10 miles , 16 km
Cloud details: Partly cloudy 11000 ft
2019/06/17 12:53 KMSL 171253Z AUTO 15005KT 10SM SCT110 24/21 A3001 RMK AO2 SLP154 T02440206
 
KBNA - Nashville International Airport
Distance from station: NE 97mi, 157km
Updated: Mon, Jun-17-2019 7:53am CDT
Mostly cloudy
Mostly cloudy
 Wind from SSW
Wind: SSW 5 mph , 7 km/h
Temperature: 75°F , 24°C
Dew Point: 70°F , 21°C
Humidity: 83%
Barometer: 30.00 inHg , 1015.9 hPa
Clouds: Mostly cloudy
Visibility: 10 miles , 16 km
Cloud details: Partly cloudy 12000 ft
Mostly cloudy 16000 ft
Mostly cloudy 25000 ft
2019/06/17 12:53 KBNA 171253Z 20004KT 10SM SCT120 BKN160 BKN250 24/21 A3000 RMK AO2 SLP151 T02440206
KMEM - Memphis International Airport
Distance from station: W 108mi, 173km
Updated: Mon, Jun-17-2019 7:54am CDT
Mostly cloudy
Mostly cloudy
 Wind from SSW
Wind: SSW 9 mph , 15 km/h
Temperature: 73°F , 23°C
Dew Point: 68°F , 20°C
Humidity: 83%
Barometer: 29.95 inHg , 1014.2 hPa
Clouds: Mostly cloudy
Visibility: 10 miles , 16 km
Cloud details: Few Clouds 5500 ft
Partly cloudy 9000 ft
Partly cloudy 12000 ft
Mostly cloudy 18000 ft
Mostly cloudy 25000 ft
2019/06/17 12:54 KMEM 171254Z 20008KT 10SM FEW055 SCT090 SCT120 BKN180 BKN250 23/20 A2995 RMK AO2 SLP139 T02280200 $
 
KTYS - Knoxville McGhee Tyson Airport
Distance from station: E 234mi, 377km
Updated: Mon, Jun-17-2019 7:53am CDT
Overcast
Overcast
 Wind from SW
Wind: SW 6 mph , 9 km/h
Temperature: 75°F , 24°C
Dew Point: 66°F , 19°C
Humidity: 74%
Barometer: 30.05 inHg , 1017.6 hPa
Clouds: Overcast
Visibility: 10 miles , 16 km
Cloud details: Few Clouds 4700 ft
Mostly cloudy 6500 ft
Overcast 20000 ft
2019/06/17 12:53 KTYS 171253Z 23005KT 10SM FEW047 BKN065 OVC200 24/19 A3005 RMK AO2 SLP164 T02440194
KSTL - St. Louis International Airport
Distance from station: NW 247mi, 398km
Updated: Mon, Jun-17-2019 7:51am CDT
Mist, Overcast
Mist, Overcast
 Wind from ENE
Wind: ENE 7 mph , 11 km/h
Temperature: 72°F , 22°C
Dew Point: 70°F , 21°C
Humidity: 94%
Barometer: 29.91 inHg , 1012.9 hPa
Summary: Mist
Clouds: Overcast
Visibility: 3/4 mile , 1.2 km
Cloud details: Overcast 300 ft
2019/06/17 12:51 KSTL 171251Z 07006KT 3/4SM R30R/1800V4500FT BR OVC003 22/21 A2991 RMK AO2 SLP117 T02170206

Refresh Page for latest data.